Time;durP1;ratioP1;P1;durP2;ratioP2;P2;SDS_P1;SDS_P2;PMS_P1;PMS_P2;Temp;Humidity;BMP_temperature;BMP_pressure;BME280_temperature;BME280_humidity;BME280_pressure;Samples;Min_cycle;Max_cycle;Signal;HPM_P1;HPM_P2
2022/01/08 00:01:38;;;;;;;23.45;12.88;;;;;;;0.61;83.20;100489.22;1624963;86;21510;-76
2022/01/08 00:04:05;;;;;;;20.40;12.15;;;;;;;0.59;83.23;100487.05;1624907;86;20973;-76
2022/01/08 00:06:31;;;;;;;20.30;11.83;;;;;;;0.59;83.26;100488.73;1621511;86;21006;-76
2022/01/08 00:08:57;;;;;;;21.15;12.58;;;;;;;0.59;83.31;100480.69;1641339;86;20934;-76
2022/01/08 00:11:26;;;;;;;21.87;13.40;;;;;;;0.61;83.28;100482.86;1641330;85;20926;-76
2022/01/08 00:13:53;;;;;;;20.12;12.53;;;;;;;0.62;83.29;100486.27;1633534;85;21529;-76
2022/01/08 00:16:19;;;;;;;22.10;12.60;;;;;;;0.61;83.26;100483.27;1645253;84;20909;-76
2022/01/08 00:18:45;;;;;;;25.05;14.38;;;;;;;0.60;83.36;100484.09;1666269;84;21583;-76
2022/01/08 00:21:11;;;;;;;21.90;13.58;;;;;;;0.61;83.35;100488.36;1671269;84;20893;-76
2022/01/08 00:23:37;;;;;;;24.23;12.23;;;;;;;0.59;83.38;100489.59;1613355;87;20939;-76
2022/01/08 00:26:04;;;;;;;21.40;12.37;;;;;;;0.59;83.38;100486.19;1608012;87;20981;-76
2022/01/08 00:28:30;;;;;;;;;;;;;;;0.59;83.41;100486.19;1636551;87;21064;-76
2022/01/08 00:30:57;;;;;;;17.85;11.57;;;;;;;0.58;83.47;100473.02;1640239;86;20099;-76
2022/01/08 00:33:23;;;;;;;22.17;12.98;;;;;;;0.58;83.46;100478.97;1604733;87;20932;-76
2022/01/08 00:35:49;;;;;;;17.50;11.18;;;;;;;0.59;83.45;100479.42;1574528;87;20965;-76
2022/01/08 00:38:15;;;;;;;19.67;12.03;;;;;;;0.58;83.44;100485.33;1645879;86;20991;-76
2022/01/08 00:40:41;;;;;;;17.60;11.38;;;;;;;0.59;83.45;100484.92;1607929;87;21819;-76
2022/01/08 00:43:07;;;;;;;19.40;12.85;;;;;;;0.60;83.51;100484.09;1596327;87;27422;-76
2022/01/08 00:45:33;;;;;;;18.83;11.90;;;;;;;0.61;83.50;100482.86;1640726;86;20966;-76
2022/01/08 00:47:59;;;;;;;22.52;13.85;;;;;;;0.61;83.50;100475.64;1640490;86;21797;-76
2022/01/08 00:50:25;;;;;;;23.38;14.20;;;;;;;0.62;83.53;100474.39;1653026;84;20949;-76
2022/01/08 00:52:51;;;;;;;20.77;13.22;;;;;;;0.61;83.54;100472.67;1623427;86;21106;-76
2022/01/08 00:55:17;;;;;;;19.50;12.10;;;;;;;0.61;83.54;100473.09;1583748;87;21100;-76
2022/01/08 00:57:46;;;;;;;16.97;11.15;;;;;;;0.60;83.57;100477.32;1635740;86;21070;-77
2022/01/08 01:00:14;;;;;;;18.35;12.03;;;;;;;0.60;83.55;100472.64;1667698;85;21135;-76
2022/01/08 01:02:40;;;;;;;18.45;11.10;;;;;;;0.60;83.57;100467.14;1674201;84;21019;-76
2022/01/08 01:05:07;;;;;;;;;;;;;;;0.61;83.57;100468.00;1659444;85;20992;-76
2022/01/08 01:07:34;;;;;;;14.68;11.03;;;;;;;0.61;83.65;100470.13;1641808;85;20111;-76
2022/01/08 01:10:00;;;;;;;13.58;10.13;;;;;;;0.63;83.67;100462.12;1662753;84;26607;-76
2022/01/08 01:12:26;;;;;;;16.40;11.50;;;;;;;0.63;83.67;100471.03;1652681;85;21107;-76
2022/01/08 01:14:52;;;;;;;12.60;10.63;;;;;;;0.65;83.68;100469.38;1666074;84;21065;-76
2022/01/08 01:17:18;;;;;;;18.97;12.17;;;;;;;0.68;83.70;100466.45;1602141;86;333079;-76
2022/01/08 01:19:45;;;;;;;12.25;8.30;;;;;;;0.70;83.74;100467.34;1620294;86;20914;-76
2022/01/08 01:22:14;;;;;;;17.57;10.80;;;;;;;0.72;83.74;100460.60;1599438;88;21096;-76
2022/01/08 01:24:39;;;;;;;17.23;11.90;;;;;;;0.74;83.72;100462.35;1608618;88;21155;-76
2022/01/08 01:30:02;;;;;;;16.37;10.70;;;;;;;0.74;83.69;100459.81;1628323;86;21588;-76
2022/01/08 01:43:38;;;;;;;16.52;11.65;;;;;;;0.79;83.82;100453.55;1609395;86;21124;-76
2022/01/08 01:48:37;;;;;;;16.12;11.25;;;;;;;0.81;83.83;100455.70;1589086;89;21092;-76
2022/01/08 01:51:04;;;;;;;16.25;11.93;;;;;;;0.81;83.84;100451.48;1559745;90;26509;-76
2022/01/08 01:53:30;;;;;;;17.65;12.10;;;;;;;0.82;83.85;100451.06;1616703;86;21322;-76
2022/01/08 01:55:56;;;;;;;15.50;11.20;;;;;;;0.80;83.83;100451.03;1628207;86;22641;-76
2022/01/08 01:58:22;;;;;;;14.35;10.43;;;;;;;0.79;83.87;100448.45;1624875;86;21119;-76
2022/01/08 02:00:51;;;;;;;13.25;10.85;;;;;;;0.80;83.89;100445.94;1609336;86;21129;-76
2022/01/08 02:03:17;;;;;;;15.20;10.30;;;;;;;0.80;83.87;100438.72;1627838;86;20969;-76
2022/01/08 02:05:46;;;;;;;14.15;9.98;;;;;;;0.79;83.87;100430.23;1632047;86;20902;-76
2022/01/08 02:08:13;;;;;;;13.45;10.78;;;;;;;0.80;83.92;100425.99;1595901;88;20994;-76
2022/01/08 02:10:40;;;;;;;13.68;10.03;;;;;;;0.81;83.96;100422.20;1623607;86;20985;-76
2022/01/08 02:13:06;;;;;;;13.60;10.93;;;;;;;0.83;83.94;100422.23;1617353;88;21568;-76
2022/01/08 02:15:32;;;;;;;13.83;11.53;;;;;;;0.83;83.94;100424.78;1607466;86;21049;-76
2022/01/08 02:17:58;;;;;;;17.32;12.18;;;;;;;0.85;84.01;100421.86;1641414;85;21348;-76
2022/01/08 02:20:24;;;;;;;15.35;11.95;;;;;;;0.85;84.02;100415.50;1595789;87;20982;-76
2022/01/08 02:22:50;;;;;;;16.70;12.05;;;;;;;0.85;84.01;100412.95;1628922;86;20937;-76
2022/01/08 02:25:22;;;;;;;16.80;12.23;;;;;;;0.87;84.01;100415.97;1634090;86;20961;-76
2022/01/08 02:27:48;;;;;;;15.40;11.60;;;;;;;0.85;84.01;100409.13;1620939;87;22016;-76
2022/01/08 02:30:14;;;;;;;15.78;12.18;;;;;;;0.85;84.00;100410.41;1608078;87;20913;-76
2022/01/08 02:32:41;;;;;;;16.50;12.85;;;;;;;0.85;84.01;100406.59;1629301;86;21637;-76
2022/01/08 02:35:08;;;;;;;16.02;11.97;;;;;;;0.85;84.05;100402.77;1620836;86;21357;-76
2022/01/08 02:37:34;;;;;;;17.40;12.28;;;;;;;0.85;84.04;100401.08;1634438;86;21767;-76
2022/01/08 02:40:04;;;;;;;18.48;12.40;;;;;;;0.85;84.07;100398.95;1632472;86;20982;-76
2022/01/08 02:42:38;;;;;;;19.00;13.00;;;;;;;0.84;84.07;100395.55;1630601;86;20997;-76
2022/01/08 02:44:58;;;;;;;17.52;12.30;;;;;;;0.84;84.11;100387.05;1643579;86;20969;-76
2022/01/08 02:47:24;;;;;;;15.18;12.50;;;;;;;0.85;84.11;100387.08;1597798;87;20933;-76
2022/01/08 02:49:52;;;;;;;19.15;13.25;;;;;;;0.83;84.11;100381.10;1584966;89;21067;-76
2022/01/08 02:52:18;;;;;;;19.00;13.05;;;;;;;0.83;84.09;100386.19;1602957;87;21065;-76
2022/01/08 02:54:44;;;;;;;14.87;11.65;;;;;;;0.82;84.14;100381.08;1619109;87;21002;-76
2022/01/08 02:57:10;;;;;;;18.87;12.35;;;;;;;0.81;84.10;100377.67;1632160;86;20929;-76
2022/01/08 02:59:36;;;;;;;21.23;13.43;;;;;;;0.81;84.14;100381.48;1622509;87;20905;-76
2022/01/08 03:02:03;;;;;;;20.08;12.75;;;;;;;0.83;84.14;100381.52;1613713;87;20977;-76
2022/01/08 03:04:29;;;;;;;20.17;13.03;;;;;;;0.81;84.16;100381.91;1614246;86;20988;-76
2022/01/08 03:06:55;;;;;;;21.93;14.45;;;;;;;0.81;84.17;100388.27;1643841;86;21393;-76
2022/01/08 03:09:21;;;;;;;24.20;13.62;;;;;;;0.81;84.22;100380.22;1636495;86;20918;-76
2022/01/08 03:11:47;;;;;;;19.95;13.55;;;;;;;0.81;84.19;100384.03;1631599;86;21988;-76
2022/01/08 03:14:13;;;;;;;20.93;14.07;;;;;;;0.82;84.24;100379.80;1613350;86;21777;-76
2022/01/08 03:16:39;;;;;;;18.32;13.53;;;;;;;0.82;84.24;100382.34;1593852;87;20984;-76
2022/01/08 03:19:12;;;;;;;18.17;13.15;;;;;;;0.81;84.17;100378.94;1574050;90;20978;-76
2022/01/08 03:21:45;;;;;;;17.75;12.95;;;;;;;0.81;84.25;100376.39;1592637;87;20978;-76
2022/01/08 03:24:17;;;;;;;17.17;13.80;;;;;;;0.80;84.25;100370.01;1600297;88;20961;-76
2022/01/08 03:26:43;;;;;;;18.07;13.60;;;;;;;0.78;84.20;100368.70;1586098;88;20967;-76
2022/01/08 03:29:09;;;;;;;17.75;13.65;;;;;;;0.79;84.25;100379.73;1594271;89;20982;-76
2022/01/08 03:31:36;;;;;;;20.08;14.30;;;;;;;0.79;84.24;100375.92;1592580;88;20983;-76
2022/01/08 03:34:03;;;;;;;19.70;13.95;;;;;;;0.78;84.29;100373.80;1561451;90;20921;-76
2022/01/08 03:36:28;;;;;;;18.67;14.30;;;;;;;0.78;84.32;100367.43;1602126;87;20945;-76
2022/01/08 03:38:55;;;;;;;20.60;14.87;;;;;;;0.79;84.33;100363.20;1614579;87;20922;-76
2022/01/08 03:41:22;;;;;;;21.05;14.60;;;;;;;0.78;84.32;100364.89;1601787;87;21658;-76
2022/01/08 03:43:49;;;;;;;17.20;13.10;;;;;;;0.77;84.32;100372.48;1600202;88;20951;-76
2022/01/08 03:46:18;;;;;;;18.60;13.53;;;;;;;0.78;84.34;100366.57;1559718;89;20950;-76
2022/01/08 03:51:10;;;;;;;21.62;13.28;;;;;;;0.78;84.36;100362.75;1598808;87;21590;-76
2022/01/08 03:53:37;;;;;;;19.40;13.20;;;;;;;0.78;84.38;100362.34;1637185;85;20918;-76
2022/01/08 03:56:03;;;;;;;17.75;13.40;;;;;;;0.78;84.36;100357.66;1596567;88;21581;-76
2022/01/08 03:58:29;;;;;;;19.95;14.13;;;;;;;0.79;84.38;100353.02;1625261;86;20934;-76
2022/01/08 04:00:55;;;;;;;17.02;12.98;;;;;;;0.80;84.38;100354.73;1619531;86;20867;-76
2022/01/08 04:03:21;;;;;;;19.23;13.45;;;;;;;0.78;84.37;100348.76;1640470;86;20987;-76
2022/01/08 04:05:49;;;;;;;18.80;14.03;;;;;;;0.77;84.39;100343.23;1613687;88;20935;-76
2022/01/08 04:08:17;;;;;;;16.37;12.88;;;;;;;0.76;84.41;100337.69;1640375;86;20950;-77
2022/01/08 04:10:44;;;;;;;19.25;12.85;;;;;;;0.77;84.42;100336.86;1633658;86;20933;-76
2022/01/08 04:13:18;;;;;;;18.85;13.65;;;;;;;0.77;84.42;100335.59;1597608;89;20954;-76
2022/01/08 04:15:44;;;;;;;21.62;13.80;;;;;;;0.78;84.42;100339.85;1641219;86;20970;-76
2022/01/08 04:18:10;;;;;;;21.07;12.82;;;;;;;0.76;84.43;100354.23;1618510;87;21485;-76
2022/01/08 04:20:47;;;;;;;;;;;;;;;0.77;84.41;100353.41;1653364;86;20979;-76
2022/01/08 04:23:04;;;;;;;17.42;12.53;;;;;;;0.75;84.52;100343.20;1643164;86;20097;-76
2022/01/08 04:25:31;;;;;;;21.52;14.18;;;;;;;0.76;84.52;100342.37;1660571;86;20968;-76
2022/01/08 04:27:57;;;;;;;21.15;13.60;;;;;;;0.78;84.50;100350.03;1609081;89;21781;-76
2022/01/08 04:30:23;;;;;;;14.00;11.18;;;;;;;0.76;84.48;100339.83;1608653;87;20974;-77
2022/01/08 04:32:49;;;;;;;20.52;14.18;;;;;;;0.75;84.50;100336.84;1620400;87;20982;-76
2022/01/08 04:35:15;;;;;;;18.30;13.48;;;;;;;0.75;84.49;100337.25;1638451;87;20934;-76
2022/01/08 04:37:41;;;;;;;21.10;13.98;;;;;;;0.75;84.56;100337.25;1625400;87;21793;-76
2022/01/08 04:40:08;;;;;;;17.32;12.53;;;;;;;0.74;84.51;100329.17;1608094;87;20938;-76
2022/01/08 04:42:35;;;;;;;20.00;13.53;;;;;;;0.75;84.57;100328.34;1607377;89;21438;-76
2022/01/08 04:45:01;;;;;;;17.50;13.60;;;;;;;0.74;84.56;100318.58;1607665;89;20925;-76
2022/01/08 04:47:27;;;;;;;18.02;13.70;;;;;;;0.74;84.57;100317.30;1608607;87;20969;-76
2022/01/08 04:49:52;;;;;;;18.12;13.68;;;;;;;0.73;84.56;100318.13;1610915;87;21614;-76
2022/01/08 04:52:18;;;;;;;18.70;13.23;;;;;;;0.73;84.56;100308.37;1621584;87;20929;-76
2022/01/08 04:54:44;;;;;;;21.77;13.58;;;;;;;0.71;84.54;100313.43;1608854;89;21613;-76
2022/01/08 04:57:10;;;;;;;16.73;10.70;;;;;;;0.69;84.51;100311.27;1610373;87;20881;-76
2022/01/08 04:59:36;;;;;;;22.47;14.37;;;;;;;0.68;84.54;100315.91;1612088;87;21622;-76
2022/01/08 05:02:02;;;;;;;19.57;13.78;;;;;;;0.64;84.49;100318.81;1608881;89;20938;-76
2022/01/08 05:04:28;;;;;;;20.55;14.58;;;;;;;0.64;84.54;100308.64;1612853;87;20921;-76
2022/01/08 05:06:54;;;;;;;19.82;14.28;;;;;;;0.61;84.54;100317.48;1636147;87;20934;-76
2022/01/08 05:09:21;;;;;;;18.60;13.78;;;;;;;0.62;84.58;100315.80;1606243;87;20935;-76
2022/01/08 05:11:48;;;;;;;17.80;12.70;;;;;;;0.62;84.59;100313.25;1603808;89;20926;-76
2022/01/08 05:14:14;;;;;;;18.25;13.20;;;;;;;0.62;84.64;100314.52;1603713;89;20990;-76
2022/01/08 05:16:42;;;;;;;22.45;13.55;;;;;;;0.63;84.64;100313.70;1627655;87;20906;-76
2022/01/08 05:19:08;;;;;;;22.35;13.93;;;;;;;0.63;84.62;100314.97;1598915;87;20979;-76
2022/01/08 05:21:37;;;;;;;18.73;12.68;;;;;;;0.61;84.59;100313.66;1597632;88;21569;-76
2022/01/08 05:24:02;;;;;;;19.70;14.05;;;;;;;0.61;84.62;100312.81;1596598;88;20950;-77
2022/01/08 05:26:28;;;;;;;18.65;13.32;;;;;;;0.63;84.65;100314.55;1610136;88;25219;-77
2022/01/08 05:28:56;;;;;;;19.37;12.88;;;;;;;0.62;84.64;100310.30;1627417;87;20985;-77
2022/01/08 05:31:23;;;;;;;17.17;13.03;;;;;;;0.63;84.65;100325.15;1608155;86;21081;-76
2022/01/08 05:33:51;;;;;;;19.35;13.08;;;;;;;0.62;84.65;100322.16;1639870;86;21060;-76
2022/01/08 05:36:18;;;;;;;17.42;11.95;;;;;;;0.63;84.68;100323.45;1659194;86;21006;-76
2022/01/08 05:38:45;;;;;;;18.12;11.63;;;;;;;0.64;84.70;100316.69;1653739;86;21077;-76
2022/01/08 05:41:11;;;;;;;18.57;13.30;;;;;;;0.63;84.66;100313.28;1624671;88;21569;-76
2022/01/08 05:43:37;;;;;;;16.17;12.37;;;;;;;0.63;84.70;100318.37;1616143;88;26542;-76
2022/01/08 05:46:04;;;;;;;16.62;11.40;;;;;;;0.63;84.67;100316.24;1645294;86;25455;-76
2022/01/08 05:48:30;;;;;;;18.00;11.97;;;;;;;0.62;84.71;100320.47;1624966;86;21506;-76
2022/01/08 05:50:56;;;;;;;17.63;12.37;;;;;;;0.63;84.71;100322.19;1632549;87;21464;-76
2022/01/08 05:53:22;;;;;;;19.10;12.35;;;;;;;0.63;84.71;100320.91;1619872;86;21777;-76
2022/01/08 05:55:49;;;;;;;18.52;12.15;;;;;;;0.63;84.67;100316.24;1609508;87;21545;-76
2022/01/08 05:58:16;;;;;;;17.37;12.30;;;;;;;0.62;84.67;100319.20;1585655;88;21474;-76
2022/01/08 06:00:42;;;;;;;18.23;11.95;;;;;;;0.61;84.70;100321.71;1622390;87;21549;-76
2022/01/08 06:03:09;;;;;;;19.55;12.88;;;;;;;0.60;84.70;100322.55;1591934;89;21607;-76
2022/01/08 06:05:35;;;;;;;21.35;13.13;;;;;;;0.58;84.67;100325.05;1617482;87;21059;-76
2022/01/08 06:08:01;;;;;;;19.95;13.13;;;;;;;0.58;84.73;100331.42;1609669;86;21607;-76
2022/01/08 06:10:27;;;;;;;18.50;13.10;;;;;;;0.58;84.74;100333.10;1636415;86;20916;-76
2022/01/08 06:12:53;;;;;;;17.75;13.00;;;;;;;0.58;84.73;100333.10;1659317;86;21452;-76
2022/01/08 06:15:20;;;;;;;21.93;12.78;;;;;;;0.58;84.74;100335.23;1659305;86;21503;-76
2022/01/08 06:17:46;;;;;;;18.32;11.93;;;;;;;0.58;84.78;100337.77;1636643;86;21440;-76
2022/01/08 06:20:13;;;;;;;17.45;12.20;;;;;;;0.59;84.79;100341.17;1588750;88;21493;-76
2022/01/08 06:22:39;;;;;;;17.50;12.15;;;;;;;0.59;84.78;100344.58;1628683;87;21631;-76
2022/01/08 06:25:05;;;;;;;15.65;9.20;;;;;;;0.59;84.76;100338.22;1595139;89;21078;-76
2022/01/08 06:27:32;;;;;;;18.45;12.53;;;;;;;0.59;84.79;100339.49;1645142;86;21559;-76
2022/01/08 06:29:58;;;;;;;19.42;12.00;;;;;;;0.60;84.80;100339.94;1602205;88;21612;-76
2022/01/08 06:32:24;;;;;;;17.45;12.60;;;;;;;0.60;84.79;100340.35;1625756;88;21542;-76
2022/01/08 06:34:50;;;;;;;18.80;13.08;;;;;;;0.60;84.78;100339.08;1591992;89;22478;-76
2022/01/08 06:37:17;;;;;;;19.65;12.75;;;;;;;0.59;84.78;100338.63;1645294;86;21627;-76
2022/01/08 06:39:43;;;;;;;16.95;12.13;;;;;;;0.59;84.79;100338.22;1604934;88;21486;-76
2022/01/08 06:42:09;;;;;;;19.25;11.35;;;;;;;0.59;84.83;100344.58;1628278;87;20898;-76
2022/01/08 06:44:35;;;;;;;19.67;12.58;;;;;;;0.59;84.84;100346.27;1628148;87;21675;-76
2022/01/08 06:47:01;;;;;;;17.15;11.93;;;;;;;0.60;84.86;100347.56;1637520;86;21599;-76
2022/01/08 06:49:27;;;;;;;17.32;12.50;;;;;;;0.60;84.85;100350.11;1605144;88;21510;-76
2022/01/08 06:51:53;;;;;;;18.40;12.63;;;;;;;0.60;84.85;100351.38;1657002;86;20916;-76
2022/01/08 06:54:19;;;;;;;19.57;12.18;;;;;;;0.61;84.85;100356.92;1656980;86;21762;-76
2022/01/08 06:56:45;;;;;;;14.93;10.88;;;;;;;0.61;84.83;100354.79;1614769;88;21524;-76
2022/01/08 06:59:11;;;;;;;15.10;11.15;;;;;;;0.61;84.83;100367.51;1629268;87;21492;-76
2022/01/08 07:01:37;;;;;;;17.37;12.23;;;;;;;0.60;84.87;100360.29;1594736;88;21604;-76
2022/01/08 07:04:04;;;;;;;19.48;11.70;;;;;;;0.60;84.85;100360.29;1638271;86;21569;-76
2022/01/08 07:06:30;;;;;;;16.32;12.78;;;;;;;0.60;84.85;100359.44;1629520;87;26237;-76
2022/01/08 07:08:56;;;;;;;17.42;12.60;;;;;;;0.59;84.85;100358.58;1629583;87;21572;-76
2022/01/08 07:11:22;;;;;;;15.83;12.78;;;;;;;0.59;84.88;100371.30;1599357;88;21614;-76
2022/01/08 07:13:48;;;;;;;15.90;10.65;;;;;;;0.59;84.86;100361.12;1627423;86;21103;-76
2022/01/08 07:16:14;;;;;;;18.80;11.97;;;;;;;0.61;84.88;100361.15;1629361;86;21569;-76
2022/01/08 07:18:40;;;;;;;17.92;12.40;;;;;;;0.61;84.92;100359.46;1571495;89;21617;-76
2022/01/08 07:21:06;;;;;;;16.32;12.15;;;;;;;0.63;84.92;100365.86;1599966;88;21558;-76
2022/01/08 07:23:32;;;;;;;22.50;12.53;;;;;;;0.62;84.87;100352.69;1576148;87;21109;-76
2022/01/08 07:25:58;;;;;;;16.83;13.17;;;;;;;0.61;85.11;100358.19;1601318;87;21753;-76
2022/01/08 07:28:25;;;;;;;17.45;12.75;;;;;;;0.61;85.11;100358.19;1621156;87;21443;-76
2022/01/08 07:30:51;;;;;;;21.55;14.20;;;;;;;0.62;84.94;100358.63;1636505;87;21023;-76
2022/01/08 07:33:17;;;;;;;19.70;12.55;;;;;;;0.65;84.96;100371.83;1636471;87;23269;-76
2022/01/08 07:35:43;;;;;;;20.08;12.98;;;;;;;0.64;84.96;100368.43;1629537;87;21075;-76
2022/01/08 07:38:10;;;;;;;;;;;;;;;0.65;84.96;100362.92;1615744;87;21438;-76
2022/01/08 07:40:36;;;;;;;20.00;13.45;;;;;;;0.66;84.99;100369.73;1602754;89;20222;-76
2022/01/08 07:43:03;;;;;;;23.02;14.53;;;;;;;0.67;84.98;100365.09;1602584;89;21845;-77
2022/01/08 07:45:29;;;;;;;23.73;14.33;;;;;;;0.67;84.98;100363.81;1616818;87;21140;-77
2022/01/08 07:47:55;;;;;;;23.02;14.60;;;;;;;0.69;84.98;100366.39;1607577;87;21137;-77
2022/01/08 07:50:22;;;;;;;19.70;14.18;;;;;;;0.69;84.96;100354.52;1602663;88;21090;-77
2022/01/08 07:52:49;;;;;;;22.20;14.95;;;;;;;0.68;84.93;100350.27;1606386;87;21099;-77
2022/01/08 07:55:15;;;;;;;23.77;15.78;;;;;;;0.68;84.94;100353.22;1617877;87;26039;-77
2022/01/08 07:57:41;;;;;;;23.52;14.45;;;;;;;0.70;84.98;100347.75;1623582;87;20939;-77
2022/01/08 08:00:09;;;;;;;24.02;16.17;;;;;;;0.71;84.99;100343.11;1623490;87;21135;-77
2022/01/08 08:02:35;;;;;;;21.40;14.45;;;;;;;0.72;84.97;100348.64;1629412;87;21066;-77
2022/01/08 08:05:01;;;;;;;25.55;15.85;;;;;;;0.72;85.00;100347.37;1636447;87;21115;-77
2022/01/08 08:07:29;;;;;;;27.17;16.10;;;;;;;0.74;85.00;100353.34;1633160;87;21120;-77
2022/01/08 08:09:56;;;;;;;24.18;15.50;;;;;;;0.75;85.00;100351.24;1622425;87;20933;-77
2022/01/08 08:12:23;;;;;;;20.27;14.50;;;;;;;0.75;85.03;100344.47;1636552;87;20980;-76
2022/01/08 08:14:49;;;;;;;26.30;15.50;;;;;;;0.76;85.04;100344.05;1638076;87;20939;-76
2022/01/08 08:17:15;;;;;;;28.42;16.67;;;;;;;0.77;85.02;100344.50;1632457;87;20973;-76
2022/01/08 08:19:41;;;;;;;23.10;15.53;;;;;;;0.78;85.06;100350.03;1629856;87;20960;-76
2022/01/08 08:22:08;;;;;;;28.98;16.12;;;;;;;0.78;85.05;100352.16;1624507;86;20915;-76
2022/01/08 08:24:34;;;;;;;25.65;15.75;;;;;;;0.79;85.05;100350.06;1619790;86;21043;-76
2022/01/08 08:27:00;;;;;;;25.57;16.52;;;;;;;0.79;85.07;100347.52;1596752;88;20993;-76
2022/01/08 08:29:26;;;;;;;26.87;16.85;;;;;;;0.81;85.07;100347.13;1631386;86;20945;-76
2022/01/08 08:31:52;;;;;;;28.03;15.53;;;;;;;0.83;85.10;100352.25;1596164;88;20900;-76
2022/01/08 08:34:18;;;;;;;24.80;15.85;;;;;;;0.84;85.09;100351.42;1650029;86;20968;-76
2022/01/08 08:36:44;;;;;;;23.75;15.68;;;;;;;0.86;85.08;100359.53;1660758;86;20949;-76
2022/01/08 08:39:10;;;;;;;22.30;15.13;;;;;;;0.90;85.11;100362.58;1650296;86;20946;-76
2022/01/08 08:41:36;;;;;;;23.40;14.68;;;;;;;0.94;85.09;100348.22;1641839;86;20946;-76
2022/01/08 08:44:03;;;;;;;25.15;14.35;;;;;;;0.96;85.09;100354.20;1603480;88;20957;-76
2022/01/08 08:46:29;;;;;;;22.58;14.13;;;;;;;0.99;85.07;100352.98;1625162;87;20943;-76
2022/01/08 08:48:55;;;;;;;19.40;13.22;;;;;;;1.02;85.09;100350.49;1617144;88;20976;-76
2022/01/08 08:51:21;;;;;;;28.23;15.50;;;;;;;1.07;85.10;100354.36;1618114;86;20951;-76
2022/01/08 08:53:47;;;;;;;23.70;15.23;;;;;;;1.08;85.03;100342.08;1597867;89;20942;-76
2022/01/08 08:56:13;;;;;;;22.25;13.98;;;;;;;1.07;84.97;100342.49;1629667;86;20958;-76
2022/01/08 08:58:39;;;;;;;21.82;14.10;;;;;;;1.05;84.95;100347.11;1623687;86;20981;-76
2022/01/08 09:01:05;;;;;;;23.30;15.25;;;;;;;1.04;84.92;100350.52;1622356;88;21084;-76
2022/01/08 09:03:32;;;;;;;24.23;14.87;;;;;;;1.00;84.85;100354.70;1627064;86;21872;-76
2022/01/08 09:05:58;;;;;;;26.75;15.35;;;;;;;0.96;84.85;100355.06;1609462;88;21313;-77
2022/01/08 09:08:25;;;;;;;21.50;14.87;;;;;;;0.96;84.95;100356.33;1657839;86;21083;-77
2022/01/08 09:10:51;;;;;;;21.60;14.60;;;;;;;0.95;84.99;100355.03;1659882;86;20952;-77
2022/01/08 09:13:17;;;;;;;21.40;14.93;;;;;;;0.96;84.98;100359.29;1639355;86;21093;-77
2022/01/08 09:15:43;;;;;;;22.97;14.93;;;;;;;0.96;85.05;100357.60;1619476;86;20934;-77
2022/01/08 09:18:10;;;;;;;25.17;14.55;;;;;;;0.97;85.03;100361.86;1646098;86;21144;-77
2022/01/08 09:20:37;;;;;;;21.15;14.78;;;;;;;0.98;85.03;100360.17;1602013;88;21119;-77
2022/01/08 09:23:05;;;;;;;25.82;15.18;;;;;;;0.96;85.00;100360.56;1592280;89;21015;-77
2022/01/08 09:25:31;;;;;;;24.27;14.65;;;;;;;0.95;85.06;100366.06;1604735;89;21097;-76
2022/01/08 09:27:57;;;;;;;27.15;17.05;;;;;;;0.94;85.01;100373.27;1627780;87;21072;-76
2022/01/08 09:30:23;;;;;;;26.23;15.80;;;;;;;0.93;85.02;100368.14;1604146;87;21677;-76
2022/01/08 09:32:49;;;;;;;25.15;16.17;;;;;;;0.91;85.01;100368.53;1607724;89;21075;-76
2022/01/08 09:35:17;;;;;;;25.90;16.45;;;;;;;0.91;85.08;100369.80;1623511;87;20949;-76
2022/01/08 09:37:43;;;;;;;28.47;16.93;;;;;;;0.94;85.13;100371.12;1591845;89;21045;-76
2022/01/08 09:40:13;;;;;;;;;;;;;;;0.96;85.12;100369.05;1610024;89;21123;-76
2022/01/08 09:42:41;;;;;;;23.18;14.98;;;;;;;0.98;85.13;100359.77;1613605;87;20168;-76
2022/01/08 09:45:09;;;;;;;28.05;14.80;;;;;;;0.99;85.10;100366.56;1607552;89;20918;-76
2022/01/08 09:47:36;;;;;;;24.90;14.35;;;;;;;1.00;85.10;100364.88;1607440;87;20877;-76
2022/01/08 09:50:04;;;;;;;24.07;14.35;;;;;;;1.02;85.15;100368.31;1607960;87;20965;-76
2022/01/08 09:52:31;;;;;;;24.12;14.05;;;;;;;1.07;85.20;100360.31;1612720;87;20965;-76
2022/01/08 09:54:57;;;;;;;26.37;15.32;;;;;;;1.11;85.17;100361.23;1626458;87;21532;-77
2022/01/08 09:57:24;;;;;;;26.65;16.70;;;;;;;1.14;85.16;100363.41;1616449;86;21081;-77
2022/01/08 09:59:51;;;;;;;;;;;;;;;1.18;85.18;100354.14;1634611;87;20909;-76
2022/01/08 10:02:21;;;;;;;;;;;;;;;1.19;85.10;100353.31;1610426;87;20110;-76
2022/01/08 10:04:47;;;;;;;29.20;15.95;;;;;;;1.20;85.14;100357.58;1616506;87;20100;-76
2022/01/08 10:07:24;;;;;;;25.80;17.10;;;;;;;1.20;85.16;100349.94;1637658;87;20978;-76
2022/01/08 10:10:12;;;;;;;28.42;15.88;;;;;;;1.19;85.10;100355.44;1623697;87;20996;-76
2022/01/08 10:12:51;;;;;;;22.13;14.38;;;;;;;1.19;85.16;100354.17;1608952;87;21030;-76
2022/01/08 10:18:33;;;;;;;21.95;14.63;;;;;;;1.25;85.17;100348.33;1637512;87;20953;-76
2022/01/08 10:21:02;;;;;;;23.22;14.68;;;;;;;1.28;85.17;100349.66;1621279;86;20961;-76
2022/01/08 10:23:33;;;;;;;27.45;15.23;;;;;;;1.32;85.23;100344.64;1569156;89;20948;-77
2022/01/08 10:26:05;;;;;;;26.20;15.88;;;;;;;1.36;85.20;100340.87;1607745;88;21017;-76
2022/01/08 10:28:59;;;;;;;28.38;15.32;;;;;;;1.39;85.20;100340.50;1630220;86;20890;-76
2022/01/08 10:31:32;;;;;;;26.15;15.80;;;;;;;1.41;85.19;100333.75;1590839;89;21093;-76
2022/01/08 10:34:12;;;;;;;28.07;16.52;;;;;;;1.45;85.20;100331.69;1629261;87;21124;-76
2022/01/08 10:36:47;;;;;;;29.57;15.28;;;;;;;1.48;85.22;100326.64;1625245;86;21124;-76
2022/01/08 10:39:27;;;;;;;27.30;14.68;;;;;;;1.50;85.19;100327.53;1625600;88;21105;-76
2022/01/08 10:41:55;;;;;;;20.17;13.13;;;;;;;1.52;85.14;100327.14;1632080;86;21079;-76
2022/01/08 10:44:25;;;;;;;22.20;13.53;;;;;;;1.54;85.17;100328.44;1657309;86;21031;-76
2022/01/08 10:47:07;;;;;;;21.57;13.05;;;;;;;1.56;85.20;100331.86;1657227;86;21067;-76
2022/01/08 10:49:47;;;;;;;23.22;15.20;;;;;;;1.60;85.22;100322.13;1652832;86;20993;-76
2022/01/08 10:52:18;;;;;;;22.55;13.62;;;;;;;1.65;85.21;100319.23;1601803;88;21153;-76
2022/01/08 10:54:59;;;;;;;26.65;15.75;;;;;;;1.68;85.21;100318.42;1596177;89;21083;-76
2022/01/08 10:57:41;;;;;;;20.52;14.00;;;;;;;1.72;85.20;100321.45;1630445;86;21068;-76
2022/01/08 11:00:12;;;;;;;25.20;15.88;;;;;;;1.76;85.22;100317.70;1597694;88;21131;-76
2022/01/08 11:02:41;;;;;;;27.25;16.05;;;;;;;1.83;85.24;100317.38;1600960;88;21106;-76
2022/01/08 11:05:10;;;;;;;25.30;15.63;;;;;;;1.85;85.22;100315.29;1594825;88;21089;-76
2022/01/08 11:07:39;;;;;;;25.20;15.40;;;;;;;1.90;85.26;100320.04;1635263;86;21123;-76
2022/01/08 11:10:20;;;;;;;20.80;14.33;;;;;;;1.96;85.26;100318.85;1596158;88;21054;-76
2022/01/08 11:12:48;;;;;;;19.55;13.80;;;;;;;2.03;85.27;100313.42;1628701;88;21005;-76
2022/01/08 11:17:56;;;;;;;25.30;15.35;;;;;;;2.19;85.27;100311.48;1647471;86;21069;-77
2022/01/08 11:20:27;;;;;;;26.77;15.38;;;;;;;2.26;85.25;100314.55;1645490;86;21083;-76
2022/01/08 11:22:57;;;;;;;19.07;12.13;;;;;;;2.30;85.21;100317.58;1653046;86;21071;-76
2022/01/08 11:25:35;;;;;;;20.52;12.60;;;;;;;2.34;85.19;100315.92;1634313;87;21089;-76
2022/01/08 11:28:14;;;;;;;23.20;14.70;;;;;;;2.39;85.18;100315.98;1606822;87;21143;-76
2022/01/08 11:30:45;;;;;;;22.73;14.73;;;;;;;2.42;85.19;100316.88;1625420;86;21013;-76
2022/01/08 11:33:28;;;;;;;26.82;15.63;;;;;;;2.44;85.14;100310.09;1636670;87;21077;-76
2022/01/08 11:35:54;;;;;;;25.57;16.12;;;;;;;2.48;85.18;100317.37;1608587;87;21065;-76
2022/01/08 11:38:23;;;;;;;27.93;16.48;;;;;;;2.49;85.19;100316.53;1636499;87;21132;-76
2022/01/08 11:40:51;;;;;;;24.15;14.60;;;;;;;2.49;85.16;100319.08;1636781;87;21505;-76
2022/01/08 11:43:21;;;;;;;21.55;13.85;;;;;;;2.50;85.19;100322.92;1633791;87;21624;-76
2022/01/08 11:46:04;;;;;;;21.97;13.22;;;;;;;2.49;85.14;100316.53;1615368;87;21036;-76